sensor_id;sensor_type;location;lat;lon;timestamp;temperature;humidity
15967;DHT22;15175;48.154;11.534;2023-03-31T00:01:59;10.00;99.90
15967;DHT22;15175;48.154;11.534;2023-03-31T00:04:26;10.00;99.90
15967;DHT22;15175;48.154;11.534;2023-03-31T00:06:56;10.00;99.90
15967;DHT22;15175;48.154;11.534;2023-03-31T00:09:24;10.00;99.90
15967;DHT22;15175;48.154;11.534;2023-03-31T00:11:54;10.00;99.90
15967;DHT22;15175;48.154;11.534;2023-03-31T00:14:22;10.00;99.90
15967;DHT22;15175;48.154;11.534;2023-03-31T00:16:49;10.00;99.90
15967;DHT22;15175;48.154;11.534;2023-03-31T00:19:17;10.00;99.90
15967;DHT22;15175;48.154;11.534;2023-03-31T00:21:45;10.10;99.90
15967;DHT22;15175;48.154;11.534;2023-03-31T00:24:14;10.10;99.90
15967;DHT22;15175;48.154;11.534;2023-03-31T00:26:41;10.10;99.90
15967;DHT22;15175;48.154;11.534;2023-03-31T00:29:10;10.10;99.90
15967;DHT22;15175;48.154;11.534;2023-03-31T00:31:39;10.10;99.90
15967;DHT22;15175;48.154;11.534;2023-03-31T00:34:06;10.10;99.90
15967;DHT22;15175;48.154;11.534;2023-03-31T00:36:33;10.10;99.90
15967;DHT22;15175;48.154;11.534;2023-03-31T00:39:03;10.10;99.90
15967;DHT22;15175;48.154;11.534;2023-03-31T00:41:31;10.10;99.90
15967;DHT22;15175;48.154;11.534;2023-03-31T00:44:04;10.20;99.90
15967;DHT22;15175;48.154;11.534;2023-03-31T00:46:34;10.20;99.90
15967;DHT22;15175;48.154;11.534;2023-03-31T00:49:04;10.20;99.90
15967;DHT22;15175;48.154;11.534;2023-03-31T00:51:33;10.20;99.90
15967;DHT22;15175;48.154;11.534;2023-03-31T00:54:02;10.20;99.90
15967;DHT22;15175;48.154;11.534;2023-03-31T00:56:32;10.20;99.90
15967;DHT22;15175;48.154;11.534;2023-03-31T00:59:02;10.20;99.90
15967;DHT22;15175;48.154;11.534;2023-03-31T01:01:33;10.20;99.90
15967;DHT22;15175;48.154;11.534;2023-03-31T01:04:01;10.20;99.90
15967;DHT22;15175;48.154;11.534;2023-03-31T01:06:30;10.30;99.90
15967;DHT22;15175;48.154;11.534;2023-03-31T01:08:57;10.30;99.90
15967;DHT22;15175;48.154;11.534;2023-03-31T01:11:26;10.30;99.90
15967;DHT22;15175;48.154;11.534;2023-03-31T01:13:56;10.30;99.90
15967;DHT22;15175;48.154;11.534;2023-03-31T01:16:23;10.30;99.90
15967;DHT22;15175;48.154;11.534;2023-03-31T01:18:50;10.30;99.90
15967;DHT22;15175;48.154;11.534;2023-03-31T01:24:47;10.30;99.90
15967;DHT22;15175;48.154;11.534;2023-03-31T01:27:36;10.40;99.90
15967;DHT22;15175;48.154;11.534;2023-03-31T01:30:50;10.40;99.90
15967;DHT22;15175;48.154;11.534;2023-03-31T01:33:41;10.40;99.90
15967;DHT22;15175;48.154;11.534;2023-03-31T01:42:28;10.40;99.90
15967;DHT22;15175;48.154;11.534;2023-03-31T01:45:01;10.40;99.90
15967;DHT22;15175;48.154;11.534;2023-03-31T01:47:36;10.40;99.90
15967;DHT22;15175;48.154;11.534;2023-03-31T01:50:09;10.40;99.90
15967;DHT22;15175;48.154;11.534;2023-03-31T01:52:41;10.40;99.90
15967;DHT22;15175;48.154;11.534;2023-03-31T01:55:14;10.40;99.90
15967;DHT22;15175;48.154;11.534;2023-03-31T01:57:48;10.40;99.90
15967;DHT22;15175;48.154;11.534;2023-03-31T02:00:19;10.50;99.90
15967;DHT22;15175;48.154;11.534;2023-03-31T02:02:50;10.50;99.90
15967;DHT22;15175;48.154;11.534;2023-03-31T02:05:19;10.50;99.90
15967;DHT22;15175;48.154;11.534;2023-03-31T02:07:53;10.50;99.90
15967;DHT22;15175;48.154;11.534;2023-03-31T02:10:23;10.50;99.90
15967;DHT22;15175;48.154;11.534;2023-03-31T02:12:52;10.50;99.90
15967;DHT22;15175;48.154;11.534;2023-03-31T02:15:23;10.60;99.90
15967;DHT22;15175;48.154;11.534;2023-03-31T02:17:54;10.60;99.90
15967;DHT22;15175;48.154;11.534;2023-03-31T02:20:23;10.60;99.90
15967;DHT22;15175;48.154;11.534;2023-03-31T02:22:53;10.60;99.90
15967;DHT22;15175;48.154;11.534;2023-03-31T02:25:22;10.70;99.90
15967;DHT22;15175;48.154;11.534;2023-03-31T02:27:55;10.70;99.90
15967;DHT22;15175;48.154;11.534;2023-03-31T02:30:28;10.70;99.90
15967;DHT22;15175;48.154;11.534;2023-03-31T02:32:58;10.70;99.90
15967;DHT22;15175;48.154;11.534;2023-03-31T02:35:26;10.70;99.90
15967;DHT22;15175;48.154;11.534;2023-03-31T02:37:56;10.60;99.90
15967;DHT22;15175;48.154;11.534;2023-03-31T02:40:24;10.60;99.90
15967;DHT22;15175;48.154;11.534;2023-03-31T02:42:53;10.60;99.90
15967;DHT22;15175;48.154;11.534;2023-03-31T02:45:42;10.60;99.90
15967;DHT22;15175;48.154;11.534;2023-03-31T02:48:12;10.60;99.90
15967;DHT22;15175;48.154;11.534;2023-03-31T02:51:15;10.60;99.90
15967;DHT22;15175;48.154;11.534;2023-03-31T02:53:58;10.60;99.90
15967;DHT22;15175;48.154;11.534;2023-03-31T02:56:56;10.60;99.90
15967;DHT22;15175;48.154;11.534;2023-03-31T02:59:52;10.60;99.90
15967;DHT22;15175;48.154;11.534;2023-03-31T03:02:31;10.60;99.90
15967;DHT22;15175;48.154;11.534;2023-03-31T03:05:18;10.60;99.90
15967;DHT22;15175;48.154;11.534;2023-03-31T03:08:16;10.60;99.90
15967;DHT22;15175;48.154;11.534;2023-03-31T03:10:57;10.50;99.90
15967;DHT22;15175;48.154;11.534;2023-03-31T03:13:32;10.60;99.90
15967;DHT22;15175;48.154;11.534;2023-03-31T03:16:06;10.50;99.90
15967;DHT22;15175;48.154;11.534;2023-03-31T03:18:38;10.60;99.90
15967;DHT22;15175;48.154;11.534;2023-03-31T03:21:05;10.50;99.90
15967;DHT22;15175;48.154;11.534;2023-03-31T03:23:32;10.50;99.90
15967;DHT22;15175;48.154;11.534;2023-03-31T03:25:59;10.60;99.90
15967;DHT22;15175;48.154;11.534;2023-03-31T03:28:26;10.60;99.90
15967;DHT22;15175;48.154;11.534;2023-03-31T03:30:53;10.60;99.90
15967;DHT22;15175;48.154;11.534;2023-03-31T03:33:23;10.60;99.90
15967;DHT22;15175;48.154;11.534;2023-03-31T03:35:50;10.60;99.90
15967;DHT22;15175;48.154;11.534;2023-03-31T03:38:17;10.70;99.90
15967;DHT22;15175;48.154;11.534;2023-03-31T03:40:44;10.70;99.90
15967;DHT22;15175;48.154;11.534;2023-03-31T03:43:11;10.70;99.90
15967;DHT22;15175;48.154;11.534;2023-03-31T03:45:38;10.70;99.90
15967;DHT22;15175;48.154;11.534;2023-03-31T03:48:05;10.70;99.90
15967;DHT22;15175;48.154;11.534;2023-03-31T03:50:36;10.70;99.90
15967;DHT22;15175;48.154;11.534;2023-03-31T03:53:03;10.70;99.90
15967;DHT22;15175;48.154;11.534;2023-03-31T03:55:30;10.70;99.90
15967;DHT22;15175;48.154;11.534;2023-03-31T03:57:58;10.70;99.90
15967;DHT22;15175;48.154;11.534;2023-03-31T04:00:25;10.60;99.90
15967;DHT22;15175;48.154;11.534;2023-03-31T04:02:52;10.60;99.90
15967;DHT22;15175;48.154;11.534;2023-03-31T04:05:19;10.60;99.90
15967;DHT22;15175;48.154;11.534;2023-03-31T04:07:47;10.60;99.90
15967;DHT22;15175;48.154;11.534;2023-03-31T04:10:14;10.50;99.90
15967;DHT22;15175;48.154;11.534;2023-03-31T04:12:41;10.50;99.90
15967;DHT22;15175;48.154;11.534;2023-03-31T04:15:09;10.60;99.90
15967;DHT22;15175;48.154;11.534;2023-03-31T04:17:36;10.60;99.90
15967;DHT22;15175;48.154;11.534;2023-03-31T04:20:05;10.60;99.90
15967;DHT22;15175;48.154;11.534;2023-03-31T04:22:34;10.60;99.90
15967;DHT22;15175;48.154;11.534;2023-03-31T04:25:08;10.50;99.90
15967;DHT22;15175;48.154;11.534;2023-03-31T04:27:39;10.50;99.90
15967;DHT22;15175;48.154;11.534;2023-03-31T04:30:12;10.40;99.90
15967;DHT22;15175;48.154;11.534;2023-03-31T04:32:48;10.40;99.90
15967;DHT22;15175;48.154;11.534;2023-03-31T04:35:16;10.40;99.90
15967;DHT22;15175;48.154;11.534;2023-03-31T04:37:46;10.40;99.90
15967;DHT22;15175;48.154;11.534;2023-03-31T04:40:14;10.40;99.90
15967;DHT22;15175;48.154;11.534;2023-03-31T04:42:42;10.40;99.90
15967;DHT22;15175;48.154;11.534;2023-03-31T04:45:10;10.40;99.90
15967;DHT22;15175;48.154;11.534;2023-03-31T04:47:38;10.40;99.90
15967;DHT22;15175;48.154;11.534;2023-03-31T04:50:06;10.40;99.90
15967;DHT22;15175;48.154;11.534;2023-03-31T04:52:33;10.50;99.90
15967;DHT22;15175;48.154;11.534;2023-03-31T04:55:00;10.50;99.90
15967;DHT22;15175;48.154;11.534;2023-03-31T04:57:29;10.60;99.90
15967;DHT22;15175;48.154;11.534;2023-03-31T04:59:56;10.60;99.90
15967;DHT22;15175;48.154;11.534;2023-03-31T05:02:23;10.30;99.90
15967;DHT22;15175;48.154;11.534;2023-03-31T05:04:50;10.20;99.90
15967;DHT22;15175;48.154;11.534;2023-03-31T05:07:17;10.00;99.90
15967;DHT22;15175;48.154;11.534;2023-03-31T05:09:44;10.00;99.90
15967;DHT22;15175;48.154;11.534;2023-03-31T05:12:11;9.80;99.90
15967;DHT22;15175;48.154;11.534;2023-03-31T05:14:40;9.90;99.90
15967;DHT22;15175;48.154;11.534;2023-03-31T05:17:07;9.90;99.90
15967;DHT22;15175;48.154;11.534;2023-03-31T05:19:34;10.00;99.90
15967;DHT22;15175;48.154;11.534;2023-03-31T05:22:01;10.00;99.90
15967;DHT22;15175;48.154;11.534;2023-03-31T05:24:28;10.00;99.90
15967;DHT22;15175;48.154;11.534;2023-03-31T05:26:56;10.00;99.90
15967;DHT22;15175;48.154;11.534;2023-03-31T05:29:23;9.90;99.90
15967;DHT22;15175;48.154;11.534;2023-03-31T05:31:52;9.90;99.90
15967;DHT22;15175;48.154;11.534;2023-03-31T05:34:19;9.80;99.90
15967;DHT22;15175;48.154;11.534;2023-03-31T05:36:46;9.90;99.90
15967;DHT22;15175;48.154;11.534;2023-03-31T05:39:15;9.90;99.90
15967;DHT22;15175;48.154;11.534;2023-03-31T05:41:43;9.90;99.90
15967;DHT22;15175;48.154;11.534;2023-03-31T05:44:10;9.80;99.90
15967;DHT22;15175;48.154;11.534;2023-03-31T05:46:37;9.70;99.90
15967;DHT22;15175;48.154;11.534;2023-03-31T05:49:05;9.60;99.90
15967;DHT22;15175;48.154;11.534;2023-03-31T05:51:32;9.60;99.90
15967;DHT22;15175;48.154;11.534;2023-03-31T05:53:59;9.70;99.90
15967;DHT22;15175;48.154;11.534;2023-03-31T05:56:30;9.70;99.90
15967;DHT22;15175;48.154;11.534;2023-03-31T05:58:58;9.80;99.90
15967;DHT22;15175;48.154;11.534;2023-03-31T06:01:26;9.80;99.90
15967;DHT22;15175;48.154;11.534;2023-03-31T06:03:55;9.80;99.90
15967;DHT22;15175;48.154;11.534;2023-03-31T06:06:24;9.80;99.90
15967;DHT22;15175;48.154;11.534;2023-03-31T06:08:51;9.80;99.90
15967;DHT22;15175;48.154;11.534;2023-03-31T06:11:19;9.80;99.90
15967;DHT22;15175;48.154;11.534;2023-03-31T06:13:47;9.90;99.90
15967;DHT22;15175;48.154;11.534;2023-03-31T06:16:16;9.90;99.90
15967;DHT22;15175;48.154;11.534;2023-03-31T06:18:43;9.90;99.90
15967;DHT22;15175;48.154;11.534;2023-03-31T06:21:12;10.00;99.90
15967;DHT22;15175;48.154;11.534;2023-03-31T06:23:42;9.90;99.90
15967;DHT22;15175;48.154;11.534;2023-03-31T06:26:11;9.90;99.90
15967;DHT22;15175;48.154;11.534;2023-03-31T06:28:38;10.00;99.90
15967;DHT22;15175;48.154;11.534;2023-03-31T06:31:07;10.00;99.90
15967;DHT22;15175;48.154;11.534;2023-03-31T06:33:35;10.00;99.90
15967;DHT22;15175;48.154;11.534;2023-03-31T06:36:02;10.00;99.90
15967;DHT22;15175;48.154;11.534;2023-03-31T06:38:30;10.10;99.90
15967;DHT22;15175;48.154;11.534;2023-03-31T06:40:59;10.10;99.90
15967;DHT22;15175;48.154;11.534;2023-03-31T06:43:26;10.10;99.90
15967;DHT22;15175;48.154;11.534;2023-03-31T06:45:54;10.10;99.90
15967;DHT22;15175;48.154;11.534;2023-03-31T06:48:22;10.10;99.90
15967;DHT22;15175;48.154;11.534;2023-03-31T06:50:50;10.10;99.90
15967;DHT22;15175;48.154;11.534;2023-03-31T06:53:18;10.10;99.90
15967;DHT22;15175;48.154;11.534;2023-03-31T06:55:47;10.20;99.90
15967;DHT22;15175;48.154;11.534;2023-03-31T06:58:15;10.20;99.90
15967;DHT22;15175;48.154;11.534;2023-03-31T07:00:42;10.20;99.90
15967;DHT22;15175;48.154;11.534;2023-03-31T07:03:10;10.30;99.90
15967;DHT22;15175;48.154;11.534;2023-03-31T07:05:38;10.30;99.90
15967;DHT22;15175;48.154;11.534;2023-03-31T07:08:05;10.30;99.90
15967;DHT22;15175;48.154;11.534;2023-03-31T07:10:32;10.30;99.90
15967;DHT22;15175;48.154;11.534;2023-03-31T07:13:00;10.20;99.90
15967;DHT22;15175;48.154;11.534;2023-03-31T07:15:29;10.30;99.90
15967;DHT22;15175;48.154;11.534;2023-03-31T07:17:56;10.30;99.90
15967;DHT22;15175;48.154;11.534;2023-03-31T07:20:27;10.30;99.90
15967;DHT22;15175;48.154;11.534;2023-03-31T07:22:54;10.30;99.90
15967;DHT22;15175;48.154;11.534;2023-03-31T07:25:22;10.40;99.90
15967;DHT22;15175;48.154;11.534;2023-03-31T07:27:49;10.40;99.90
15967;DHT22;15175;48.154;11.534;2023-03-31T07:30:17;10.40;99.90
15967;DHT22;15175;48.154;11.534;2023-03-31T07:32:47;10.40;99.90
15967;DHT22;15175;48.154;11.534;2023-03-31T07:35:15;10.40;99.90
15967;DHT22;15175;48.154;11.534;2023-03-31T07:37:45;10.50;99.90
15967;DHT22;15175;48.154;11.534;2023-03-31T07:40:13;10.50;99.90
15967;DHT22;15175;48.154;11.534;2023-03-31T07:42:42;10.50;99.90
15967;DHT22;15175;48.154;11.534;2023-03-31T07:45:12;10.40;99.90
15967;DHT22;15175;48.154;11.534;2023-03-31T07:47:39;10.40;99.90
15967;DHT22;15175;48.154;11.534;2023-03-31T07:50:08;10.40;99.90
15967;DHT22;15175;48.154;11.534;2023-03-31T07:52:35;10.50;99.90
15967;DHT22;15175;48.154;11.534;2023-03-31T07:55:03;10.60;99.90
15967;DHT22;15175;48.154;11.534;2023-03-31T07:57:30;10.60;99.90
15967;DHT22;15175;48.154;11.534;2023-03-31T07:59:57;10.50;99.90
15967;DHT22;15175;48.154;11.534;2023-03-31T08:02:24;10.50;99.90
15967;DHT22;15175;48.154;11.534;2023-03-31T08:04:51;10.50;99.90
15967;DHT22;15175;48.154;11.534;2023-03-31T08:07:20;10.50;99.90
15967;DHT22;15175;48.154;11.534;2023-03-31T08:09:47;10.50;99.90
15967;DHT22;15175;48.154;11.534;2023-03-31T08:12:14;10.50;99.90
15967;DHT22;15175;48.154;11.534;2023-03-31T08:14:41;10.50;99.90
15967;DHT22;15175;48.154;11.534;2023-03-31T08:17:09;10.60;99.90
15967;DHT22;15175;48.154;11.534;2023-03-31T08:19:36;10.60;99.90
15967;DHT22;15175;48.154;11.534;2023-03-31T08:22:03;10.70;99.90
15967;DHT22;15175;48.154;11.534;2023-03-31T08:24:31;10.70;99.90
15967;DHT22;15175;48.154;11.534;2023-03-31T08:26:58;10.70;99.90
15967;DHT22;15175;48.154;11.534;2023-03-31T08:29:25;10.70;99.90
15967;DHT22;15175;48.154;11.534;2023-03-31T08:31:53;10.70;99.90
15967;DHT22;15175;48.154;11.534;2023-03-31T08:34:20;10.70;99.90
15967;DHT22;15175;48.154;11.534;2023-03-31T08:36:47;10.70;99.90
15967;DHT22;15175;48.154;11.534;2023-03-31T08:39:15;10.60;99.90
15967;DHT22;15175;48.154;11.534;2023-03-31T08:41:52;10.60;99.90
15967;DHT22;15175;48.154;11.534;2023-03-31T08:44:26;10.70;99.90
15967;DHT22;15175;48.154;11.534;2023-03-31T08:46:57;10.60;99.90
15967;DHT22;15175;48.154;11.534;2023-03-31T08:49:25;10.60;99.90
15967;DHT22;15175;48.154;11.534;2023-03-31T08:51:56;10.70;99.90
15967;DHT22;15175;48.154;11.534;2023-03-31T08:54:30;10.70;99.90
15967;DHT22;15175;48.154;11.534;2023-03-31T08:57:00;10.70;99.90
15967;DHT22;15175;48.154;11.534;2023-03-31T08:59:31;10.80;99.90
15967;DHT22;15175;48.154;11.534;2023-03-31T09:02:03;10.90;99.90
15967;DHT22;15175;48.154;11.534;2023-03-31T09:04:49;11.00;99.90
15967;DHT22;15175;48.154;11.534;2023-03-31T09:07:22;11.10;99.90
15967;DHT22;15175;48.154;11.534;2023-03-31T09:09:57;11.20;99.90
15967;DHT22;15175;48.154;11.534;2023-03-31T09:12:33;11.20;99.90
15967;DHT22;15175;48.154;11.534;2023-03-31T09:15:03;11.30;99.90
15967;DHT22;15175;48.154;11.534;2023-03-31T09:17:39;11.40;99.90
15967;DHT22;15175;48.154;11.534;2023-03-31T09:20:13;11.40;99.90
15967;DHT22;15175;48.154;11.534;2023-03-31T09:22:46;11.40;99.90
15967;DHT22;15175;48.154;11.534;2023-03-31T09:25:17;11.40;99.90
15967;DHT22;15175;48.154;11.534;2023-03-31T09:27:48;11.50;99.90
15967;DHT22;15175;48.154;11.534;2023-03-31T09:30:19;11.70;99.90
15967;DHT22;15175;48.154;11.534;2023-03-31T09:32:50;12.00;99.90
15967;DHT22;15175;48.154;11.534;2023-03-31T09:35:20;12.30;99.90
15967;DHT22;15175;48.154;11.534;2023-03-31T09:37:50;12.50;99.90
15967;DHT22;15175;48.154;11.534;2023-03-31T09:40:20;12.70;99.90
15967;DHT22;15175;48.154;11.534;2023-03-31T09:42:53;13.00;99.90
15967;DHT22;15175;48.154;11.534;2023-03-31T09:45:21;13.20;99.90
15967;DHT22;15175;48.154;11.534;2023-03-31T09:47:50;13.50;99.90
15967;DHT22;15175;48.154;11.534;2023-03-31T09:50:20;13.70;99.90
15967;DHT22;15175;48.154;11.534;2023-03-31T09:52:49;13.90;99.90
15967;DHT22;15175;48.154;11.534;2023-03-31T09:55:20;14.10;99.90
15967;DHT22;15175;48.154;11.534;2023-03-31T09:57:49;14.20;99.90
15967;DHT22;15175;48.154;11.534;2023-03-31T10:00:20;14.40;99.90
15967;DHT22;15175;48.154;11.534;2023-03-31T10:02:48;14.50;99.90
15967;DHT22;15175;48.154;11.534;2023-03-31T10:05:27;14.70;99.90
15967;DHT22;15175;48.154;11.534;2023-03-31T10:08:20;14.70;99.90
15967;DHT22;15175;48.154;11.534;2023-03-31T10:10:49;14.70;99.90
15967;DHT22;15175;48.154;11.534;2023-03-31T10:13:19;14.80;99.90
15967;DHT22;15175;48.154;11.534;2023-03-31T10:15:51;14.90;99.90
15967;DHT22;15175;48.154;11.534;2023-03-31T10:18:20;15.00;99.90
15967;DHT22;15175;48.154;11.534;2023-03-31T10:20:49;15.20;99.90
15967;DHT22;15175;48.154;11.534;2023-03-31T10:23:26;15.50;99.90
15967;DHT22;15175;48.154;11.534;2023-03-31T10:25:54;15.70;99.90
15967;DHT22;15175;48.154;11.534;2023-03-31T10:28:23;15.80;99.90
15967;DHT22;15175;48.154;11.534;2023-03-31T10:30:52;15.90;99.90
15967;DHT22;15175;48.154;11.534;2023-03-31T10:33:22;15.80;99.90
15967;DHT22;15175;48.154;11.534;2023-03-31T10:35:54;15.80;99.90
15967;DHT22;15175;48.154;11.534;2023-03-31T10:38:25;15.70;99.90
15967;DHT22;15175;48.154;11.534;2023-03-31T10:40:54;15.80;99.90
15967;DHT22;15175;48.154;11.534;2023-03-31T10:43:26;16.00;99.90
15967;DHT22;15175;48.154;11.534;2023-03-31T10:45:55;16.00;99.90
15967;DHT22;15175;48.154;11.534;2023-03-31T10:48:26;16.10;99.90
15967;DHT22;15175;48.154;11.534;2023-03-31T10:50:54;16.10;99.90
15967;DHT22;15175;48.154;11.534;2023-03-31T10:53:24;15.90;99.90
15967;DHT22;15175;48.154;11.534;2023-03-31T10:56:04;15.80;99.90
15967;DHT22;15175;48.154;11.534;2023-03-31T10:58:42;15.80;99.90
15967;DHT22;15175;48.154;11.534;2023-03-31T11:01:26;15.80;99.90
15967;DHT22;15175;48.154;11.534;2023-03-31T11:04:11;15.80;99.90
15967;DHT22;15175;48.154;11.534;2023-03-31T11:06:54;15.80;99.90
15967;DHT22;15175;48.154;11.534;2023-03-31T11:09:35;15.60;99.90
15967;DHT22;15175;48.154;11.534;2023-03-31T11:12:10;15.50;99.90
15967;DHT22;15175;48.154;11.534;2023-03-31T11:14:48;15.40;99.90
15967;DHT22;15175;48.154;11.534;2023-03-31T11:17:25;15.40;99.90
15967;DHT22;15175;48.154;11.534;2023-03-31T11:20:05;15.30;99.90
15967;DHT22;15175;48.154;11.534;2023-03-31T11:22:42;15.20;99.90
15967;DHT22;15175;48.154;11.534;2023-03-31T11:25:21;15.00;99.90
15967;DHT22;15175;48.154;11.534;2023-03-31T11:28:27;14.80;99.90
15967;DHT22;15175;48.154;11.534;2023-03-31T11:31:10;14.50;99.90
15967;DHT22;15175;48.154;11.534;2023-03-31T11:33:56;14.00;99.90
15967;DHT22;15175;48.154;11.534;2023-03-31T11:36:37;13.60;99.90
15967;DHT22;15175;48.154;11.534;2023-03-31T11:39:21;13.30;99.90
15967;DHT22;15175;48.154;11.534;2023-03-31T11:41:56;13.10;99.90
15967;DHT22;15175;48.154;11.534;2023-03-31T11:44:26;13.00;99.90
15967;DHT22;15175;48.154;11.534;2023-03-31T11:46:57;12.90;99.90
15967;DHT22;15175;48.154;11.534;2023-03-31T11:49:28;12.80;99.90
15967;DHT22;15175;48.154;11.534;2023-03-31T11:51:59;12.80;99.90
15967;DHT22;15175;48.154;11.534;2023-03-31T11:54:30;12.80;99.90
15967;DHT22;15175;48.154;11.534;2023-03-31T11:57:02;12.70;99.90
15967;DHT22;15175;48.154;11.534;2023-03-31T11:59:31;12.70;99.90
15967;DHT22;15175;48.154;11.534;2023-03-31T12:02:03;12.80;99.90
15967;DHT22;15175;48.154;11.534;2023-03-31T12:04:34;12.90;99.90
15967;DHT22;15175;48.154;11.534;2023-03-31T12:07:07;13.00;99.90
15967;DHT22;15175;48.154;11.534;2023-03-31T12:09:49;13.00;99.90
15967;DHT22;15175;48.154;11.534;2023-03-31T12:12:21;13.10;99.90
15967;DHT22;15175;48.154;11.534;2023-03-31T12:14:52;13.10;99.90
15967;DHT22;15175;48.154;11.534;2023-03-31T12:17:25;13.20;99.90
15967;DHT22;15175;48.154;11.534;2023-03-31T12:19:56;13.40;99.90
15967;DHT22;15175;48.154;11.534;2023-03-31T12:22:26;13.60;99.90
15967;DHT22;15175;48.154;11.534;2023-03-31T12:24:55;13.60;99.90
15967;DHT22;15175;48.154;11.534;2023-03-31T12:27:25;13.60;99.90
15967;DHT22;15175;48.154;11.534;2023-03-31T12:29:56;13.60;99.90
15967;DHT22;15175;48.154;11.534;2023-03-31T12:32:30;13.70;99.90
15967;DHT22;15175;48.154;11.534;2023-03-31T12:35:02;13.70;99.90
15967;DHT22;15175;48.154;11.534;2023-03-31T12:38:01;13.70;99.90
15967;DHT22;15175;48.154;11.534;2023-03-31T12:40:39;13.70;99.90
15967;DHT22;15175;48.154;11.534;2023-03-31T12:43:26;13.80;99.90
15967;DHT22;15175;48.154;11.534;2023-03-31T12:46:08;13.80;99.90
15967;DHT22;15175;48.154;11.534;2023-03-31T12:48:53;13.70;99.90
15967;DHT22;15175;48.154;11.534;2023-03-31T12:54:32;13.60;99.90
15967;DHT22;15175;48.154;11.534;2023-03-31T12:57:11;13.60;99.90
15967;DHT22;15175;48.154;11.534;2023-03-31T12:59:41;13.60;99.90
15967;DHT22;15175;48.154;11.534;2023-03-31T13:02:21;13.60;99.90
15967;DHT22;15175;48.154;11.534;2023-03-31T13:04:49;13.70;99.90
15967;DHT22;15175;48.154;11.534;2023-03-31T13:07:36;13.70;99.90
15967;DHT22;15175;48.154;11.534;2023-03-31T13:10:26;13.90;99.90
15967;DHT22;15175;48.154;11.534;2023-03-31T13:13:00;13.80;99.90
15967;DHT22;15175;48.154;11.534;2023-03-31T13:15:28;13.80;99.90
15967;DHT22;15175;48.154;11.534;2023-03-31T13:17:57;13.60;99.90
15967;DHT22;15175;48.154;11.534;2023-03-31T13:20:32;13.60;99.90
15967;DHT22;15175;48.154;11.534;2023-03-31T13:23:12;13.50;99.90
15967;DHT22;15175;48.154;11.534;2023-03-31T13:25:46;13.40;99.90
15967;DHT22;15175;48.154;11.534;2023-03-31T13:28:27;13.40;99.90
15967;DHT22;15175;48.154;11.534;2023-03-31T13:30:58;13.40;99.90
15967;DHT22;15175;48.154;11.534;2023-03-31T13:33:34;13.40;99.90
15967;DHT22;15175;48.154;11.534;2023-03-31T13:39:44;13.60;99.90
15967;DHT22;15175;48.154;11.534;2023-03-31T13:42:51;13.70;99.90
15967;DHT22;15175;48.154;11.534;2023-03-31T13:45:37;13.90;99.90
15967;DHT22;15175;48.154;11.534;2023-03-31T13:48:19;14.00;99.90
15967;DHT22;15175;48.154;11.534;2023-03-31T13:51:08;14.20;99.90
15967;DHT22;15175;48.154;11.534;2023-03-31T13:56:51;14.20;99.90
15967;DHT22;15175;48.154;11.534;2023-03-31T13:59:33;14.30;99.90
15967;DHT22;15175;48.154;11.534;2023-03-31T14:02:36;14.20;99.90
15967;DHT22;15175;48.154;11.534;2023-03-31T14:05:29;14.20;99.90
15967;DHT22;15175;48.154;11.534;2023-03-31T14:07:58;14.10;99.90
15967;DHT22;15175;48.154;11.534;2023-03-31T14:10:30;14.10;99.90
15967;DHT22;15175;48.154;11.534;2023-03-31T14:13:06;14.10;99.90
15967;DHT22;15175;48.154;11.534;2023-03-31T14:15:35;14.00;99.90
15967;DHT22;15175;48.154;11.534;2023-03-31T14:18:04;14.00;99.90
15967;DHT22;15175;48.154;11.534;2023-03-31T14:20:36;14.00;99.90
15967;DHT22;15175;48.154;11.534;2023-03-31T14:23:14;14.00;99.90
15967;DHT22;15175;48.154;11.534;2023-03-31T14:25:50;13.90;99.90
15967;DHT22;15175;48.154;11.534;2023-03-31T14:28:37;13.90;99.90
15967;DHT22;15175;48.154;11.534;2023-03-31T14:31:15;13.80;99.90
15967;DHT22;15175;48.154;11.534;2023-03-31T14:33:56;13.80;99.90
15967;DHT22;15175;48.154;11.534;2023-03-31T14:36:33;13.70;99.90
15967;DHT22;15175;48.154;11.534;2023-03-31T14:39:05;13.70;99.90
15967;DHT22;15175;48.154;11.534;2023-03-31T14:41:35;13.60;99.90
15967;DHT22;15175;48.154;11.534;2023-03-31T14:44:11;13.50;99.90
15967;DHT22;15175;48.154;11.534;2023-03-31T14:46:40;13.00;99.90
15967;DHT22;15175;48.154;11.534;2023-03-31T14:49:24;12.50;99.90
15967;DHT22;15175;48.154;11.534;2023-03-31T14:51:53;12.10;99.90
15967;DHT22;15175;48.154;11.534;2023-03-31T14:54:20;11.80;99.90
15967;DHT22;15175;48.154;11.534;2023-03-31T14:56:50;11.60;99.90
15967;DHT22;15175;48.154;11.534;2023-03-31T14:59:24;11.50;99.90
15967;DHT22;15175;48.154;11.534;2023-03-31T15:01:52;11.40;99.90
15967;DHT22;15175;48.154;11.534;2023-03-31T15:04:22;11.40;99.90
15967;DHT22;15175;48.154;11.534;2023-03-31T15:06:51;11.30;99.90
15967;DHT22;15175;48.154;11.534;2023-03-31T15:09:21;11.20;99.90
15967;DHT22;15175;48.154;11.534;2023-03-31T15:11:55;11.20;99.90
15967;DHT22;15175;48.154;11.534;2023-03-31T15:14:28;11.20;99.90
15967;DHT22;15175;48.154;11.534;2023-03-31T15:16:56;11.20;99.90
15967;DHT22;15175;48.154;11.534;2023-03-31T15:19:25;11.20;99.90
15967;DHT22;15175;48.154;11.534;2023-03-31T15:21:54;11.20;99.90
15967;DHT22;15175;48.154;11.534;2023-03-31T15:24:21;11.20;99.90
15967;DHT22;15175;48.154;11.534;2023-03-31T15:26:53;11.20;99.90
15967;DHT22;15175;48.154;11.534;2023-03-31T15:29:27;11.20;99.90
15967;DHT22;15175;48.154;11.534;2023-03-31T15:31:57;11.20;99.90
15967;DHT22;15175;48.154;11.534;2023-03-31T15:34:26;11.30;99.90
15967;DHT22;15175;48.154;11.534;2023-03-31T15:36:56;11.30;99.90
15967;DHT22;15175;48.154;11.534;2023-03-31T15:39:24;11.30;99.90
15967;DHT22;15175;48.154;11.534;2023-03-31T15:41:53;11.40;99.90
15967;DHT22;15175;48.154;11.534;2023-03-31T15:44:47;11.40;99.90
15967;DHT22;15175;48.154;11.534;2023-03-31T15:47:18;11.50;99.90
15967;DHT22;15175;48.154;11.534;2023-03-31T15:49:50;11.50;99.90
15967;DHT22;15175;48.154;11.534;2023-03-31T15:52:28;11.50;99.90
15967;DHT22;15175;48.154;11.534;2023-03-31T15:54:58;11.50;99.90
15967;DHT22;15175;48.154;11.534;2023-03-31T15:57:33;11.60;99.90
15967;DHT22;15175;48.154;11.534;2023-03-31T16:00:03;11.60;99.90
15967;DHT22;15175;48.154;11.534;2023-03-31T16:02:42;11.60;99.90
15967;DHT22;15175;48.154;11.534;2023-03-31T16:05:23;11.70;99.90
15967;DHT22;15175;48.154;11.534;2023-03-31T16:07:55;11.70;99.90